Time;durP1;ratioP1;P1;durP2;ratioP2;P2;SDS_P1;SDS_P2;PMS_P1;PMS_P2;Temp;Humidity;BMP_temperature;BMP_pressure;BME280_temperature;BME280_humidity;BME280_pressure;Samples;Min_cycle;Max_cycle;Signal;HPM_P1;HPM_P2
2022/05/19 00:00:04;;;;;;;3.65;2.03;;;;;;;12.56;63.47;96586.28;2033052;29;20035;-64
2022/05/19 00:02:14;;;;;;;4.70;2.47;;;;;;;12.53;63.38;96583.81;2041629;28;20048;-64
2022/05/19 00:03:15;;;;;;;4.47;2.35;;;;;;;12.52;64.02;96584.75;2039888;29;20055;-66
2022/05/19 00:04:17;;;;;;;3.78;2.50;;;;;;;12.53;63.57;96576.00;2040424;29;20052;-66
2022/05/19 00:05:18;;;;;;;5.50;2.13;;;;;;;12.55;63.67;96585.44;2048289;28;20051;-64
2022/05/19 00:06:19;;;;;;;5.03;2.55;;;;;;;12.52;63.39;96588.19;2041620;28;20054;-65
2022/05/19 00:07:21;;;;;;;4.10;2.53;;;;;;;12.50;64.19;96582.19;2040154;29;20450;-64
2022/05/19 00:08:22;;;;;;;4.32;2.55;;;;;;;12.48;64.54;96583.19;2025260;29;20048;-66
2022/05/19 00:09:25;;;;;;;5.25;2.60;;;;;;;12.44;63.71;96584.25;2025251;29;20048;-64
2022/05/19 00:10:26;;;;;;;4.20;2.45;;;;;;;12.42;63.90;96581.69;2040472;29;20601;-64
2022/05/19 00:11:29;;;;;;;6.88;2.20;;;;;;;12.37;63.59;96581.06;2040242;29;20062;-65
2022/05/19 00:12:30;;;;;;;3.17;2.25;;;;;;;12.35;63.96;96581.16;2033041;29;20218;-64
2022/05/19 00:13:32;;;;;;;5.20;2.35;;;;;;;12.33;63.90;96582.97;2031799;29;20040;-64
2022/05/19 00:14:33;;;;;;;4.80;2.75;;;;;;;12.31;63.98;96573.53;2032272;29;20040;-65
2022/05/19 00:15:34;;;;;;;5.13;2.70;;;;;;;12.29;64.25;96580.56;2032398;29;20055;-64
2022/05/19 00:16:35;;;;;;;5.60;2.50;;;;;;;12.26;64.92;96573.72;2032325;29;20427;-66
2022/05/19 00:17:36;;;;;;;8.70;3.08;;;;;;;12.25;64.46;96574.66;2032700;29;20052;-64
2022/05/19 00:18:37;;;;;;;4.85;2.50;;;;;;;12.25;65.12;96576.41;2024684;29;20487;-64
2022/05/19 00:19:39;;;;;;;5.43;2.42;;;;;;;12.25;65.18;96579.88;2032802;29;20065;-64
2022/05/19 00:20:40;;;;;;;8.70;2.78;;;;;;;12.22;64.99;96584.38;2047500;29;20047;-64
2022/05/19 00:21:41;;;;;;;6.40;2.70;;;;;;;12.20;65.84;96583.59;2047842;29;20450;-64
2022/05/19 00:22:42;;;;;;;6.20;2.47;;;;;;;12.19;65.41;96580.16;2040134;29;20054;-64
2022/05/19 00:23:44;;;;;;;5.03;2.55;;;;;;;12.16;65.31;96585.47;2017015;29;20060;-67
2022/05/19 00:24:45;;;;;;;5.35;2.60;;;;;;;12.16;64.80;96580.25;2024746;29;20072;-64
2022/05/19 00:25:46;;;;;;;4.63;2.55;;;;;;;12.12;64.85;96579.56;2032392;29;20059;-65
2022/05/19 00:26:47;;;;;;;5.40;2.35;;;;;;;12.11;65.21;96582.25;2025226;29;20052;-67
2022/05/19 00:27:49;;;;;;;5.85;2.80;;;;;;;12.08;64.85;96578.00;2040425;29;20478;-64
2022/05/19 00:28:50;;;;;;;5.35;2.53;;;;;;;12.11;65.38;96582.25;2040490;29;20058;-67
2022/05/19 00:29:51;;;;;;;5.75;2.67;;;;;;;12.08;65.68;96578.00;2016873;29;20471;-64
2022/05/19 00:30:56;;;;;;;6.95;2.67;;;;;;;12.05;65.70;96583.31;2025668;29;20045;-64
2022/05/19 00:31:57;;;;;;;5.18;2.90;;;;;;;12.01;65.19;96579.19;2047448;29;20062;-65
2022/05/19 00:32:58;;;;;;;4.60;2.90;;;;;;;11.99;66.34;96586.22;2047349;28;20047;-66
2022/05/19 00:34:00;;;;;;;6.88;2.65;;;;;;;11.98;66.70;96578.47;2031928;29;20052;-66
2022/05/19 00:35:03;;;;;;;7.50;2.90;;;;;;;11.96;66.23;96575.94;2039882;29;20070;-68
2022/05/19 00:36:09;;;;;;;6.13;2.90;;;;;;;11.94;65.89;96582.94;2047713;29;20059;-65
2022/05/19 00:37:10;;;;;;;4.72;2.90;;;;;;;11.93;66.62;96578.66;2040403;29;20055;-67
2022/05/19 00:38:11;;;;;;;4.60;2.50;;;;;;;11.87;66.04;96576.34;2039790;29;20044;-65
2022/05/19 00:39:13;;;;;;;5.57;2.90;;;;;;;11.85;66.13;96572.91;2039685;29;20130;-64
2022/05/19 00:40:16;;;;;;;3.88;2.60;;;;;;;11.85;65.83;96580.72;2039729;29;20052;-63
2022/05/19 00:41:18;;;;;;;4.20;2.50;;;;;;;11.80;66.51;96578.31;2016695;29;20064;-64
2022/05/19 00:43:42;;;;;;;5.25;2.70;;;;;;;11.77;65.80;96572.41;2039733;29;20521;-65
2022/05/19 00:44:43;;;;;;;5.78;2.50;;;;;;;11.76;65.92;96573.28;2042599;29;20055;-67
2022/05/19 00:45:51;;;;;;;5.78;2.70;;;;;;;11.72;66.02;96576.97;2047975;29;20530;-63
2022/05/19 00:46:53;;;;;;;5.05;2.60;;;;;;;11.72;66.64;96575.19;2032416;29;20052;-64
2022/05/19 00:48:01;;;;;;;7.35;2.83;;;;;;;11.69;66.43;96576.16;2032277;29;20051;-66
2022/05/19 00:49:10;;;;;;;5.95;2.67;;;;;;;11.66;66.81;96580.66;2039112;29;20052;-64
2022/05/19 00:50:19;;;;;;;7.10;2.80;;;;;;;11.57;66.69;96568.03;2033675;29;20414;-64
2022/05/19 00:51:25;;;;;;;9.23;2.80;;;;;;;11.60;67.55;96578.31;2031120;29;20564;-63
2022/05/19 00:52:31;;;;;;;3.83;2.47;;;;;;;11.59;67.25;96579.22;2025375;29;20044;-65
2022/05/19 00:53:39;;;;;;;4.32;2.53;;;;;;;11.55;67.27;96581.13;2023459;29;20550;-65
2022/05/19 00:54:42;;;;;;;3.63;2.72;;;;;;;11.53;67.10;96576.88;2017520;29;20508;-66
2022/05/19 00:55:44;;;;;;;7.97;3.30;;;;;;;11.48;67.34;96587.47;2032112;29;20052;-64
2022/05/19 00:56:50;;;;;;;4.45;2.90;;;;;;;11.46;67.67;96584.09;2025002;29;20045;-67
2022/05/19 00:57:57;;;;;;;5.15;2.70;;;;;;;11.43;68.60;96579.84;2018635;29;20064;-65
2022/05/19 00:59:05;;;;;;;6.22;2.65;;;;;;;11.43;67.97;96584.22;2027433;29;20061;-67
2022/05/19 01:00:17;;;;;;;7.45;3.05;;;;;;;11.40;69.24;96580.00;2024886;29;20048;-63
2022/05/19 01:01:18;;;;;;;5.25;2.53;;;;;;;11.39;69.24;96593.06;2028794;29;20033;-65
2022/05/19 01:02:22;;;;;;;5.43;2.92;;;;;;;11.37;68.59;96585.31;2041589;29;20058;-64
2022/05/19 01:03:24;;;;;;;4.75;2.53;;;;;;;11.35;68.99;96591.50;2033645;29;20051;-67
2022/05/19 01:04:36;;;;;;;5.75;3.00;;;;;;;11.31;69.05;96582.97;2025618;29;20048;-64
2022/05/19 01:05:41;;;;;;;5.05;2.83;;;;;;;11.29;69.14;96586.53;2027493;29;20052;-65
2022/05/19 01:06:42;;;;;;;4.25;2.83;;;;;;;11.26;68.93;96593.56;2027392;29;20053;-64
2022/05/19 01:07:50;;;;;;;5.63;3.00;;;;;;;11.24;69.02;96589.31;2025940;29;20479;-64
2022/05/19 01:08:59;;;;;;;6.05;2.72;;;;;;;11.22;69.26;96584.16;2034566;29;20434;-64
2022/05/19 01:10:00;;;;;;;4.85;2.85;;;;;;;11.20;68.85;96590.34;2033050;29;20052;-64
2022/05/19 01:11:02;;;;;;;6.25;3.13;;;;;;;11.19;69.28;96599.06;2025629;29;20059;-65
2022/05/19 01:12:04;;;;;;;7.15;3.40;;;;;;;11.18;69.65;96589.56;2025404;29;20049;-64
2022/05/19 01:13:05;;;;;;;4.88;2.80;;;;;;;11.15;69.48;96587.94;2025976;29;20550;-64
2022/05/19 01:14:07;;;;;;;6.45;3.30;;;;;;;11.14;69.24;96594.03;2025182;29;20052;-64
2022/05/19 01:15:08;;;;;;;5.13;2.70;;;;;;;11.12;69.75;96593.28;2033869;29;20068;-64
2022/05/19 01:16:10;;;;;;;6.97;3.00;;;;;;;11.12;69.33;96593.28;2041399;29;20051;-66
2022/05/19 01:17:11;;;;;;;6.63;3.03;;;;;;;11.09;69.73;96593.38;2033142;29;20044;-64
2022/05/19 01:18:13;;;;;;;7.72;2.90;;;;;;;11.08;69.69;96590.84;2033401;29;20051;-65
2022/05/19 01:19:20;;;;;;;6.70;2.80;;;;;;;11.06;70.14;96588.28;2025902;29;20443;-67
2022/05/19 01:20:24;;;;;;;5.00;2.85;;;;;;;11.01;70.27;96583.31;2025603;29;20044;-68
2022/05/19 01:21:26;;;;;;;7.45;3.17;;;;;;;11.06;70.18;96588.28;2019378;29;20049;-64
2022/05/19 01:22:36;;;;;;;8.20;2.95;;;;;;;11.08;70.57;96589.09;2025621;29;20052;-64
2022/05/19 01:23:54;;;;;;;5.97;2.90;;;;;;;11.10;70.46;96589.88;2034550;29;20056;-65
2022/05/19 01:25:12;;;;;;;4.95;2.70;;;;;;;11.10;70.25;96587.28;2032764;29;20423;-66
2022/05/19 01:26:33;;;;;;;5.15;2.90;;;;;;;11.09;70.19;96590.75;2025658;29;20558;-64
2022/05/19 01:27:35;;;;;;;6.00;2.97;;;;;;;11.08;70.59;96583.88;2029473;29;20039;-67
2022/05/19 01:28:36;;;;;;;4.78;2.97;;;;;;;11.07;71.01;96591.75;2033385;29;20063;-66
2022/05/19 01:29:37;;;;;;;4.90;3.03;;;;;;;11.07;70.44;96586.56;2025046;29;20047;-66
2022/05/19 01:30:39;;;;;;;5.07;2.83;;;;;;;11.02;70.56;96581.53;2027158;29;20048;-64
2022/05/19 01:31:45;;;;;;;4.82;2.97;;;;;;;11.02;70.49;96584.97;2041564;29;20410;-64
2022/05/19 01:32:47;;;;;;;5.68;2.80;;;;;;;11.02;70.20;96586.75;2041668;29;20059;-64
2022/05/19 01:33:48;;;;;;;5.78;3.00;;;;;;;11.00;70.51;96593.75;2048556;29;20122;-65
2022/05/19 01:34:49;;;;;;;7.72;3.08;;;;;;;10.98;70.39;96592.94;2040262;29;20541;-65
2022/05/19 01:35:50;;;;;;;6.90;3.55;;;;;;;10.94;70.32;96587.03;2041397;29;20052;-65
2022/05/19 01:36:52;;;;;;;6.88;3.13;;;;;;;10.93;70.13;96590.56;2049058;29;20043;-63
2022/05/19 01:37:58;;;;;;;6.03;3.33;;;;;;;10.94;70.90;96588.78;2033583;29;20055;-64
2022/05/19 01:39:12;;;;;;;5.38;3.47;;;;;;;10.93;70.53;96585.34;2029016;29;20427;-67
2022/05/19 01:40:44;;;;;;;7.38;3.00;;;;;;;10.94;69.86;96586.19;2035045;29;20052;-66
2022/05/19 01:41:59;;;;;;;7.15;3.65;;;;;;;10.89;69.89;96575.97;2037079;29;20040;-64
2022/05/19 01:43:06;;;;;;;5.53;3.15;;;;;;;10.99;69.75;96584.28;2035145;29;20537;-66
2022/05/19 01:44:17;;;;;;;4.38;2.78;;;;;;;10.97;70.21;96586.91;2040892;29;20481;-66
2022/05/19 01:45:18;;;;;;;4.78;2.92;;;;;;;10.94;70.46;96588.78;2047914;29;20055;-66
2022/05/19 01:46:30;;;;;;;8.52;3.05;;;;;;;10.93;70.01;96587.09;2041335;29;20032;-64
2022/05/19 01:47:49;;;;;;;5.72;3.20;;;;;;;10.91;70.19;96589.75;2042485;29;20421;-65
2022/05/19 01:49:18;;;;;;;8.50;3.75;;;;;;;10.89;70.00;96585.53;2041299;29;20109;-64
2022/05/19 01:50:24;;;;;;;;;;;;;;;10.91;70.27;96587.16;2037282;29;20036;-64
2022/05/19 01:51:45;;;;;;;4.45;2.95;;;;;;;10.90;69.77;96589.81;2040279;29;19925;-64
2022/05/19 01:52:52;;;;;;;5.55;3.42;;;;;;;10.88;70.22;96586.41;2033043;29;20470;-64
2022/05/19 01:54:01;;;;;;;3.90;2.67;;;;;;;10.88;70.54;96586.41;2033517;29;20040;-64
2022/05/19 01:55:22;;;;;;;5.72;3.22;;;;;;;10.86;70.55;96580.47;2033017;29;20044;-63
2022/05/19 01:56:41;;;;;;;7.68;3.33;;;;;;;10.84;70.77;96584.84;2028031;29;20045;-68
2022/05/19 01:57:48;;;;;;;6.20;3.33;;;;;;;10.82;70.84;96577.13;2033154;29;20052;-67
2022/05/19 01:59:07;;;;;;;5.43;3.35;;;;;;;10.80;70.66;96579.78;2025463;29;20064;-66
2022/05/19 02:00:21;;;;;;;6.07;3.15;;;;;;;10.81;70.86;96581.47;2014507;29;20141;-67
2022/05/19 02:01:25;;;;;;;5.47;3.10;;;;;;;10.78;70.49;96581.59;2028527;29;20071;-64
2022/05/19 02:02:42;;;;;;;9.25;3.53;;;;;;;10.75;70.35;96581.72;2033120;29;20063;-64
2022/05/19 02:04:08;;;;;;;6.22;3.00;;;;;;;10.76;71.31;96579.97;2032788;29;20521;-65
2022/05/19 02:05:19;;;;;;;7.55;3.08;;;;;;;10.75;71.19;96579.13;2040068;29;20058;-63
2022/05/19 02:06:27;;;;;;;7.20;3.35;;;;;;;10.79;71.59;96582.44;2031475;29;20506;-65
2022/05/19 02:07:28;;;;;;;5.07;2.97;;;;;;;10.76;70.69;96572.16;2026994;29;20071;-64
2022/05/19 02:08:42;;;;;;;6.85;3.08;;;;;;;10.75;70.72;96571.31;2017422;29;20052;-63
2022/05/19 02:09:48;;;;;;;5.13;3.38;;;;;;;10.87;70.68;96575.19;2020975;29;20053;-65
2022/05/19 02:10:51;;;;;;;5.28;2.70;;;;;;;10.96;69.73;96585.22;2025503;29;20060;-65
2022/05/19 02:11:54;;;;;;;4.47;2.92;;;;;;;11.03;69.97;96578.88;2025592;29;20554;-65
2022/05/19 02:12:57;;;;;;;5.88;3.33;;;;;;;11.04;69.60;96580.56;2025496;29;20059;-65
2022/05/19 02:14:01;;;;;;;6.55;3.38;;;;;;;11.04;69.00;96580.56;2024882;29;20052;-67
2022/05/19 02:15:05;;;;;;;5.47;3.28;;;;;;;11.04;69.42;96579.75;2018481;29;20049;-66
2022/05/19 02:16:07;;;;;;;8.35;3.30;;;;;;;11.12;68.35;96576.81;2017983;29;20334;-66
2022/05/19 02:17:09;;;;;;;5.65;3.00;;;;;;;11.15;67.85;96571.50;2025643;29;20060;-67
2022/05/19 02:18:13;;;;;;;5.63;3.28;;;;;;;11.18;68.26;96574.81;2033284;29;20055;-66
2022/05/19 02:19:15;;;;;;;4.78;2.78;;;;;;;11.20;67.24;96577.34;2033130;29;20058;-64
2022/05/19 02:20:19;;;;;;;8.23;3.70;;;;;;;11.15;67.59;96571.50;2032979;29;20044;-64
2022/05/19 02:21:20;;;;;;;7.53;3.13;;;;;;;11.15;67.70;96574.09;2032857;29;20052;-66
2022/05/19 02:22:22;;;;;;;6.70;3.58;;;;;;;11.18;67.48;96564.44;2032909;29;20059;-64
2022/05/19 02:23:25;;;;;;;5.25;2.97;;;;;;;11.19;67.29;96575.66;2017797;29;20056;-63
2022/05/19 02:24:27;;;;;;;8.07;3.30;;;;;;;11.22;67.50;96576.38;2017476;29;20051;-67
2022/05/19 02:25:31;;;;;;;5.60;3.03;;;;;;;11.20;66.87;96573.00;2017544;29;20546;-65
2022/05/19 02:26:33;;;;;;;7.72;3.33;;;;;;;11.17;67.12;96578.34;2018619;29;20041;-65
2022/05/19 02:28:07;;;;;;;7.18;3.70;;;;;;;11.11;67.48;96568.16;2026130;29;20053;-65
2022/05/19 02:29:09;;;;;;;7.57;3.13;;;;;;;11.13;67.53;96579.34;2028574;29;20044;-65
2022/05/19 02:30:14;;;;;;;6.32;3.25;;;;;;;11.09;67.48;96576.94;2029603;29;20044;-64
2022/05/19 02:31:16;;;;;;;7.32;3.20;;;;;;;11.08;68.21;96583.88;2038949;29;20070;-63
2022/05/19 02:32:17;;;;;;;7.00;3.33;;;;;;;11.08;67.81;96575.25;2033734;29;20048;-65
2022/05/19 02:33:18;;;;;;;6.32;3.50;;;;;;;11.04;68.44;96577.13;2039858;29;20569;-65
2022/05/19 02:34:21;;;;;;;5.07;2.90;;;;;;;10.99;68.35;96574.72;2032538;29;20043;-68
2022/05/19 02:35:23;;;;;;;6.70;3.38;;;;;;;10.97;68.23;96578.28;2016689;29;20045;-65
2022/05/19 02:36:24;;;;;;;5.70;3.72;;;;;;;10.92;68.75;96572.41;2025152;29;20052;-65
2022/05/19 02:37:25;;;;;;;6.70;3.20;;;;;;;10.88;68.55;96565.63;2032422;29;20047;-65
2022/05/19 02:38:26;;;;;;;6.03;3.30;;;;;;;10.84;68.85;96567.50;2017391;29;20041;-64
2022/05/19 02:39:27;;;;;;;5.47;3.17;;;;;;;10.81;68.95;96571.06;2024637;29;20048;-65
2022/05/19 02:40:31;;;;;;;8.07;3.47;;;;;;;10.81;69.05;96565.03;2025101;29;20048;-65
2022/05/19 02:41:32;;;;;;;7.03;3.35;;;;;;;10.79;68.93;96567.69;2025125;29;20048;-64
2022/05/19 02:42:33;;;;;;;7.30;3.50;;;;;;;10.80;69.36;96566.81;2025920;29;20092;-64
2022/05/19 02:43:34;;;;;;;9.57;3.55;;;;;;;10.79;69.20;96561.66;2024874;29;20347;-64
2022/05/19 02:44:35;;;;;;;7.07;3.40;;;;;;;10.78;69.57;96567.75;2032555;29;20494;-67
2022/05/19 02:45:37;;;;;;;4.93;3.20;;;;;;;10.75;70.15;96563.53;2025069;29;20483;-64
2022/05/19 02:46:38;;;;;;;5.53;3.53;;;;;;;10.72;70.25;96557.59;2032689;29;20426;-64
2022/05/19 02:47:39;;;;;;;4.38;3.33;;;;;;;10.74;70.40;96564.41;2032581;29;20068;-65
2022/05/19 02:48:40;;;;;;;4.47;3.10;;;;;;;10.77;70.52;96571.25;2032578;29;20048;-67
2022/05/19 02:49:42;;;;;;;6.90;3.45;;;;;;;10.74;69.66;96568.78;2046280;29;20440;-66
2022/05/19 02:50:45;;;;;;;8.70;3.58;;;;;;;10.78;69.88;96568.59;2032606;29;20538;-67
2022/05/19 02:51:46;;;;;;;7.10;3.58;;;;;;;10.80;70.40;96572.00;2033218;29;20048;-64
2022/05/19 02:52:47;;;;;;;6.18;3.67;;;;;;;10.78;69.72;96566.00;2040728;29;20055;-64
2022/05/19 02:53:48;;;;;;;6.85;3.58;;;;;;;10.76;69.42;96572.16;2039980;29;20482;-68
2022/05/19 02:54:50;;;;;;;7.43;3.88;;;;;;;10.78;69.39;96578.16;2039886;29;20048;-65
2022/05/19 02:55:51;;;;;;;4.65;3.00;;;;;;;10.76;69.09;96570.41;2024670;29;20059;-65
2022/05/19 02:56:53;;;;;;;6.20;3.60;;;;;;;10.74;69.62;96574.81;2017906;29;20094;-64
2022/05/19 02:57:54;;;;;;;6.57;3.22;;;;;;;10.73;69.15;96573.13;2025176;29;20051;-66
2022/05/19 02:58:57;;;;;;;6.68;3.97;;;;;;;10.73;69.72;96575.72;2033654;29;20363;-67
2022/05/19 02:59:59;;;;;;;6.57;3.28;;;;;;;10.68;69.43;96577.66;2033033;29;20048;-65
2022/05/19 03:01:00;;;;;;;6.50;3.60;;;;;;;10.64;70.14;96578.69;2041957;29;20071;-66
2022/05/19 03:02:01;;;;;;;6.93;3.50;;;;;;;10.62;70.47;96577.91;2048551;28;20048;-66
2022/05/19 03:03:02;;;;;;;6.30;3.97;;;;;;;10.57;70.25;96572.88;2047973;28;20059;-67
2022/05/19 03:04:03;;;;;;;6.72;3.40;;;;;;;10.52;70.13;96574.78;2024857;29;20049;-68
2022/05/19 03:05:05;;;;;;;5.65;3.53;;;;;;;10.49;70.32;96577.50;2010149;29;20060;-64
2022/05/19 03:06:06;;;;;;;8.00;3.88;;;;;;;10.46;70.61;96571.59;2017807;29;20048;-67
2022/05/19 03:07:08;;;;;;;5.45;3.60;;;;;;;10.43;71.11;96574.31;2025014;29;20052;-65
2022/05/19 03:08:09;;;;;;;5.10;3.42;;;;;;;10.42;70.07;96578.63;2025318;29;20052;-65
2022/05/19 03:09:10;;;;;;;6.80;3.45;;;;;;;10.40;70.37;96575.25;2033005;29;20076;-64
2022/05/19 03:10:11;;;;;;;6.63;3.72;;;;;;;10.38;70.51;96571.88;2033502;29;20056;-66
2022/05/19 03:11:12;;;;;;;5.47;3.20;;;;;;;10.36;70.81;96577.09;2033326;29;20052;-68
2022/05/19 03:12:14;;;;;;;5.40;3.58;;;;;;;10.34;71.11;96576.34;2041904;28;20100;-65
2022/05/19 03:13:17;;;;;;;5.32;3.30;;;;;;;10.34;70.40;96576.34;2033303;29;20056;-67
2022/05/19 03:14:19;;;;;;;7.05;3.85;;;;;;;10.30;70.92;96574.75;2040770;29;20039;-67
2022/05/19 03:15:20;;;;;;;4.97;3.22;;;;;;;10.27;70.89;96584.38;2039797;29;20539;-64
2022/05/19 03:16:21;;;;;;;6.25;3.58;;;;;;;10.22;71.38;96581.09;2040403;29;20441;-65
2022/05/19 03:17:23;;;;;;;9.18;3.80;;;;;;;10.17;71.90;96583.84;2032324;29;20514;-65
2022/05/19 03:18:24;;;;;;;7.85;3.90;;;;;;;10.14;71.80;96578.78;2025694;29;20503;-65
2022/05/19 03:19:26;;;;;;;8.77;4.22;;;;;;;10.10;71.74;96585.84;2032258;29;20040;-64
2022/05/19 03:20:27;;;;;;;5.80;3.47;;;;;;;10.07;72.03;96585.91;2032253;29;20439;-64
2022/05/19 03:21:28;;;;;;;7.57;4.10;;;;;;;10.06;72.21;96586.00;2032842;29;20055;-64
2022/05/19 03:22:30;;;;;;;7.68;4.00;;;;;;;10.01;72.75;96580.97;2017281;29;20057;-65
2022/05/19 03:23:31;;;;;;;9.15;4.15;;;;;;;9.99;72.96;96574.13;2024605;29;20049;-64
2022/05/19 03:24:32;;;;;;;5.80;3.72;;;;;;;9.96;72.52;96582.03;2047725;29;20059;-65
2022/05/19 03:25:33;;;;;;;6.20;3.85;;;;;;;9.94;73.02;96579.47;2047814;29;20138;-65
2022/05/19 03:26:35;;;;;;;5.93;3.95;;;;;;;9.91;73.28;96582.19;2032515;29;20412;-64
2022/05/19 03:27:36;;;;;;;7.78;3.78;;;;;;;9.89;73.39;96591.75;2024572;29;20053;-62
2022/05/19 03:28:37;;;;;;;7.82;3.58;;;;;;;9.86;73.26;96584.09;2024549;29;20041;-61
2022/05/19 03:29:38;;;;;;;7.75;4.15;;;;;;;9.84;72.99;96583.31;2024802;29;20053;-60
2022/05/19 03:30:40;;;;;;;5.93;4.10;;;;;;;9.83;73.00;96587.63;2040785;29;20058;-63
2022/05/19 03:31:41;;;;;;;7.47;4.00;;;;;;;9.82;73.30;96585.94;2048347;29;20046;-64
2022/05/19 03:32:42;;;;;;;6.57;3.75;;;;;;;9.82;73.17;96578.16;2032307;29;20048;-63
2022/05/19 03:33:43;;;;;;;5.50;3.58;;;;;;;9.84;73.54;96583.31;2032431;29;20440;-64
2022/05/19 03:34:44;;;;;;;4.70;3.33;;;;;;;9.84;72.88;96581.56;2031841;29;20051;-63
2022/05/19 03:35:55;;;;;;;6.40;3.40;;;;;;;9.89;72.72;96577.06;2032564;29;20059;-62
2022/05/19 03:36:56;;;;;;;6.93;3.78;;;;;;;9.89;72.70;96579.66;2041714;29;20063;-67
2022/05/19 03:37:57;;;;;;;8.85;3.60;;;;;;;9.90;72.64;96583.94;2048167;29;20043;-62
2022/05/19 03:38:59;;;;;;;6.88;3.60;;;;;;;9.90;72.30;96581.34;2048416;29;20050;-62
2022/05/19 03:40:00;;;;;;;8.80;3.80;;;;;;;9.92;72.56;96576.13;2047948;29;20058;-63
2022/05/19 03:41:03;;;;;;;11.23;4.18;;;;;;;9.94;72.31;96577.75;2040144;29;20051;-62
2022/05/19 03:42:05;;;;;;;4.82;3.05;;;;;;;9.97;71.66;96579.38;2032248;29;20062;-64
2022/05/19 03:43:06;;;;;;;5.40;3.25;;;;;;;9.96;71.96;96579.44;2032773;29;20056;-65
2022/05/19 03:44:07;;;;;;;7.82;3.50;;;;;;;10.00;71.85;96575.84;2031863;29;20048;-66
2022/05/19 03:45:09;;;;;;;8.18;3.78;;;;;;;10.01;71.25;96578.38;2040008;29;20545;-63
2022/05/19 03:46:10;;;;;;;8.07;3.90;;;;;;;10.04;71.45;96577.41;2039984;29;20525;-65
2022/05/19 03:47:11;;;;;;;7.43;3.92;;;;;;;10.05;70.83;96574.78;2040236;29;20478;-63
2022/05/19 03:48:12;;;;;;;6.35;3.70;;;;;;;10.09;70.51;96575.50;2032434;29;20542;-63
2022/05/19 03:49:13;;;;;;;5.80;3.38;;;;;;;10.10;70.57;96569.41;2030018;29;20044;-65
2022/05/19 03:50:15;;;;;;;8.25;3.67;;;;;;;10.10;70.61;96572.88;2024793;29;20526;-64
2022/05/19 03:51:23;;;;;;;10.82;3.90;;;;;;;10.10;70.16;96572.88;2024730;29;20052;-64
2022/05/19 03:52:24;;;;;;;8.32;3.60;;;;;;;10.13;70.80;96572.75;2017510;29;20045;-62
2022/05/19 03:53:27;;;;;;;5.57;3.45;;;;;;;10.12;70.28;96567.59;2010293;29;20049;-64
2022/05/19 03:54:28;;;;;;;8.40;3.22;;;;;;;10.13;70.45;96564.97;2025406;29;20048;-62
2022/05/19 03:55:30;;;;;;;6.07;3.65;;;;;;;10.12;70.39;96565.00;2033445;29;20052;-62
2022/05/19 03:56:31;;;;;;;5.10;3.42;;;;;;;10.13;70.18;96575.34;2024964;29;20566;-65
2022/05/19 03:57:32;;;;;;;5.70;3.30;;;;;;;10.12;70.88;96571.03;2024764;29;20051;-63
2022/05/19 03:58:33;;;;;;;6.60;3.75;;;;;;;10.10;70.07;96567.66;2040466;29;20486;-63
2022/05/19 03:59:35;;;;;;;5.72;3.50;;;;;;;10.10;70.27;96572.00;2024965;29;20079;-65
2022/05/19 04:00:36;;;;;;;8.85;3.67;;;;;;;10.12;69.90;96575.38;2016201;29;20052;-63
2022/05/19 04:01:37;;;;;;;6.38;3.70;;;;;;;10.11;69.96;96569.34;2024739;29;20052;-63
2022/05/19 04:02:39;;;;;;;4.78;3.22;;;;;;;10.13;69.57;96575.34;2032796;29;20063;-63
2022/05/19 04:03:40;;;;;;;5.88;3.28;;;;;;;10.15;69.92;96570.91;2032660;29;20060;-64
2022/05/19 04:04:41;;;;;;;5.30;3.30;;;;;;;10.15;70.43;96575.28;2024019;29;20056;-65
2022/05/19 04:05:42;;;;;;;6.80;3.88;;;;;;;10.16;70.33;96574.38;2032070;29;20060;-62
2022/05/19 04:06:43;;;;;;;8.98;3.83;;;;;;;10.18;70.45;96577.75;2040254;29;20051;-63
2022/05/19 04:07:44;;;;;;;5.57;3.63;;;;;;;10.18;70.07;96580.34;2032889;29;20056;-63
2022/05/19 04:08:46;;;;;;;8.07;3.60;;;;;;;10.20;70.31;96580.31;2040452;29;20047;-63
2022/05/19 04:09:47;;;;;;;9.25;3.90;;;;;;;10.20;70.19;96577.69;2040502;29;20044;-62
2022/05/19 04:10:48;;;;;;;7.13;3.63;;;;;;;10.19;69.83;96579.47;2032384;29;20147;-63
2022/05/19 04:11:49;;;;;;;6.07;3.30;;;;;;;10.19;69.67;96579.47;2032917;29;20055;-64
2022/05/19 04:12:52;;;;;;;7.28;3.67;;;;;;;10.21;69.54;96577.66;2024902;29;20056;-64
2022/05/19 04:13:53;;;;;;;7.80;3.80;;;;;;;10.21;70.40;96575.06;2032132;29;20075;-66
2022/05/19 04:14:55;;;;;;;7.68;4.05;;;;;;;10.22;70.30;96579.34;2032461;29;20063;-63
2022/05/19 04:15:56;;;;;;;7.65;2.90;;;;;;;10.23;70.05;96578.44;2033234;29;20055;-65
2022/05/19 04:16:57;;;;;;;6.72;3.42;;;;;;;10.27;69.83;96586.97;2033714;29;20056;-63
2022/05/19 04:17:58;;;;;;;4.90;3.00;;;;;;;10.29;69.90;96586.03;2024434;29;20048;-63
2022/05/19 04:18:59;;;;;;;6.05;3.33;;;;;;;10.32;69.95;96587.69;2024681;29;20129;-63
2022/05/19 04:20:01;;;;;;;4.90;3.22;;;;;;;10.36;69.80;96590.09;2040337;29;20059;-63
2022/05/19 04:21:03;;;;;;;5.82;3.60;;;;;;;10.40;69.92;96590.84;2032706;29;20541;-66
2022/05/19 04:22:04;;;;;;;5.55;3.53;;;;;;;10.40;70.29;96595.16;2025226;29;20052;-67
2022/05/19 04:23:05;;;;;;;8.40;3.67;;;;;;;10.40;69.99;96601.22;2026726;29;20044;-63
2022/05/19 04:24:06;;;;;;;6.75;3.22;;;;;;;10.41;69.67;96592.53;2019869;29;20052;-65
2022/05/19 04:25:08;;;;;;;5.65;3.10;;;;;;;10.38;69.75;96598.69;2028960;29;20527;-66
2022/05/19 04:26:09;;;;;;;6.32;3.58;;;;;;;10.44;69.53;96595.00;2040001;29;20043;-63
2022/05/19 04:27:13;;;;;;;7.95;3.05;;;;;;;10.50;69.61;96599.13;2038871;29;20058;-65
2022/05/19 04:28:14;;;;;;;8.23;3.17;;;;;;;10.47;69.81;96589.69;2027061;29;20448;-63
2022/05/19 04:29:15;;;;;;;6.75;3.33;;;;;;;10.53;69.43;96596.41;2018388;29;20053;-62
2022/05/19 04:30:16;;;;;;;4.88;3.05;;;;;;;10.59;68.79;96597.03;2037127;29;20052;-64
2022/05/19 04:31:17;;;;;;;5.88;3.00;;;;;;;10.60;69.24;96597.88;2039317;29;20063;-64
2022/05/19 04:32:19;;;;;;;8.07;3.20;;;;;;;10.61;68.88;96599.56;2040116;29;20054;-65
2022/05/19 04:33:20;;;;;;;5.90;3.53;;;;;;;10.64;69.07;96594.28;2041672;29;20055;-65
2022/05/19 04:34:21;;;;;;;7.32;3.75;;;;;;;10.65;68.72;96595.13;2041781;29;20051;-65
2022/05/19 04:35:22;;;;;;;5.57;2.80;;;;;;;10.66;68.05;96592.44;2034012;29;20055;-64
2022/05/19 04:36:24;;;;;;;5.68;3.03;;;;;;;10.73;67.85;96593.91;2033771;29;20036;-64
2022/05/19 04:37:25;;;;;;;6.53;2.92;;;;;;;10.75;67.49;96588.66;2041865;29;20047;-62
2022/05/19 04:38:26;;;;;;;6.13;3.00;;;;;;;10.75;67.22;96596.47;2049236;29;20395;-62
2022/05/19 04:39:27;;;;;;;5.95;3.33;;;;;;;10.77;66.66;96589.44;2033946;29;20048;-63
2022/05/19 04:40:28;;;;;;;5.40;3.13;;;;;;;10.76;67.84;96592.94;2033816;29;20059;-65
2022/05/19 04:41:29;;;;;;;7.22;3.13;;;;;;;10.87;67.85;96605.53;2049533;29;20054;-64
2022/05/19 04:42:31;;;;;;;6.78;3.38;;;;;;;10.90;67.45;96606.25;2048855;29;20050;-66
2022/05/19 04:43:32;;;;;;;7.60;3.42;;;;;;;10.91;67.42;96601.91;2041853;29;20051;-64
2022/05/19 04:44:33;;;;;;;7.72;2.58;;;;;;;10.94;67.74;96607.81;2041122;29;20059;-63
2022/05/19 04:45:34;;;;;;;5.45;3.20;;;;;;;10.97;67.00;96606.88;2041374;29;20054;-63
2022/05/19 04:46:36;;;;;;;7.78;3.15;;;;;;;11.01;67.12;96605.81;2041457;29;20048;-65
2022/05/19 04:47:38;;;;;;;5.90;3.42;;;;;;;11.02;66.13;96602.34;2049841;29;20118;-63
2022/05/19 04:48:39;;;;;;;8.10;3.47;;;;;;;11.07;66.30;96605.59;2048986;29;20047;-64
2022/05/19 04:49:41;;;;;;;7.32;3.35;;;;;;;11.05;65.87;96604.81;2035975;29;20051;-62
2022/05/19 04:50:42;;;;;;;9.07;3.90;;;;;;;11.09;66.03;96608.97;2041681;29;20433;-65
2022/05/19 04:51:43;;;;;;;4.90;2.95;;;;;;;11.14;66.48;96608.78;2049629;29;20058;-64
2022/05/19 04:52:44;;;;;;;8.23;3.25;;;;;;;11.13;66.45;96607.09;2049469;29;20047;-65
2022/05/19 04:53:45;;;;;;;5.60;3.33;;;;;;;11.10;66.02;96608.06;2025811;29;20048;-63
2022/05/19 04:54:47;;;;;;;7.53;3.72;;;;;;;11.16;66.20;96609.59;2033407;29;20051;-64
2022/05/19 04:55:48;;;;;;;7.78;3.03;;;;;;;11.16;65.93;96612.19;2041209;29;20060;-64
2022/05/19 04:56:50;;;;;;;6.20;3.42;;;;;;;11.14;66.03;96614.81;2041311;29;20436;-63
2022/05/19 04:57:51;;;;;;;4.85;2.95;;;;;;;11.18;65.64;96613.81;2041187;29;20066;-64
2022/05/19 04:58:52;;;;;;;5.03;3.15;;;;;;;11.23;65.02;96606.69;2041857;29;20055;-64
2022/05/19 04:59:54;;;;;;;7.22;3.28;;;;;;;11.27;64.85;96620.41;2041557;29;20056;-63
2022/05/19 05:00:55;;;;;;;4.75;3.47;;;;;;;11.33;65.55;96616.69;2033796;29;20048;-63